createdAt,value
2023-03-24T00:02:17.160Z,6.27
2023-03-24T00:04:49.658Z,5.60
2023-03-24T00:07:19.436Z,6.03
2023-03-24T00:09:48.687Z,5.40
2023-03-24T00:12:19.525Z,6.10
2023-03-24T00:14:48.795Z,6.40
2023-03-24T00:17:18.482Z,6.17
2023-03-24T00:19:47.802Z,5.93
2023-03-24T00:22:17.427Z,6.60
2023-03-24T00:24:47.440Z,6.60
2023-03-24T00:27:18.739Z,6.10
2023-03-24T00:29:48.273Z,6.80
2023-03-24T00:32:18.627Z,6.00
2023-03-24T00:34:49.553Z,6.87
2023-03-24T00:37:18.892Z,6.40
2023-03-24T00:39:48.916Z,6.50
2023-03-24T00:42:19.449Z,6.27
2023-03-24T00:44:48.541Z,6.37
2023-03-24T00:47:26.170Z,6.33
2023-03-24T00:49:57.839Z,5.77
2023-03-24T00:52:33.887Z,5.93
2023-03-24T00:55:05.158Z,6.43
2023-03-24T00:57:36.166Z,6.60
2023-03-24T01:00:12.860Z,6.03
2023-03-24T01:02:43.616Z,6.10
2023-03-24T01:05:14.558Z,5.97
2023-03-24T01:07:43.740Z,5.63
2023-03-24T01:10:15.172Z,6.10
2023-03-24T01:12:45.961Z,6.43
2023-03-24T01:15:16.576Z,6.03
2023-03-24T01:17:47.212Z,6.00
2023-03-24T01:20:17.717Z,6.53
2023-03-24T01:22:46.894Z,6.47
2023-03-24T01:25:18.444Z,6.83
2023-03-24T01:27:50.354Z,6.43
2023-03-24T01:30:22.653Z,6.47
2023-03-24T01:32:53.138Z,6.50
2023-03-24T01:35:26.956Z,6.07
2023-03-24T01:37:58.158Z,5.97
2023-03-24T01:40:30.404Z,5.93
2023-03-24T01:43:01.354Z,6.07
2023-03-24T01:46:15.784Z,6.03
2023-03-24T01:48:50.275Z,6.17
2023-03-24T01:51:23.551Z,6.57
2023-03-24T01:53:55.591Z,5.60
2023-03-24T01:56:27.194Z,6.13
2023-03-24T01:59:01.056Z,5.97
2023-03-24T02:01:40.063Z,6.73
2023-03-24T02:04:45.458Z,6.13
2023-03-24T02:07:24.521Z,6.20
2023-03-24T02:09:54.026Z,6.93
2023-03-24T02:12:23.277Z,7.00
2023-03-24T02:14:55.833Z,5.90
2023-03-24T02:17:57.251Z,6.80
2023-03-24T02:20:50.887Z,6.00
2023-03-24T02:23:55.777Z,6.23
2023-03-24T02:26:49.297Z,6.33
2023-03-24T02:29:47.486Z,6.50
2023-03-24T02:33:06.557Z,6.67
2023-03-24T02:36:04.879Z,6.40
2023-03-24T02:39:20.000Z,6.13
2023-03-24T02:41:56.436Z,6.17
2023-03-24T02:44:31.829Z,6.47
2023-03-24T02:47:06.926Z,5.93
2023-03-24T02:49:44.730Z,6.40
2023-03-24T02:52:21.628Z,6.50
2023-03-24T02:55:00.358Z,6.57
2023-03-24T02:57:36.080Z,6.70
2023-03-24T03:00:33.148Z,6.30
2023-03-24T03:03:34.435Z,5.83
2023-03-24T03:06:08.266Z,6.37
2023-03-24T03:08:39.952Z,6.47
2023-03-24T03:11:13.328Z,6.33
2023-03-24T03:13:49.614Z,6.00
2023-03-24T03:16:25.315Z,7.17
2023-03-24T03:18:59.927Z,6.67
2023-03-24T03:21:39.032Z,6.50
2023-03-24T03:24:12.252Z,6.80
2023-03-24T03:26:42.899Z,6.70
2023-03-24T03:29:21.907Z,6.43
2023-03-24T03:31:59.223Z,6.70
2023-03-24T03:34:35.904Z,6.93
2023-03-24T03:37:09.287Z,6.90
2023-03-24T03:39:43.499Z,6.87
2023-03-24T03:42:14.205Z,6.63
2023-03-24T03:44:45.639Z,6.83
2023-03-24T03:47:16.182Z,6.73
2023-03-24T03:49:47.995Z,6.93
2023-03-24T03:52:17.953Z,9.60
2023-03-24T03:54:49.337Z,6.90
2023-03-24T03:57:21.490Z,6.87
2023-03-24T04:00:26.318Z,6.73
2023-03-24T04:03:44.834Z,7.37
2023-03-24T04:06:25.219Z,6.97
2023-03-24T04:09:04.534Z,7.20
2023-03-24T04:11:54.034Z,7.33
2023-03-24T04:14:42.077Z,6.97
2023-03-24T04:17:49.206Z,6.77
2023-03-24T04:20:46.900Z,7.07
2023-03-24T04:23:28.747Z,7.50
2023-03-24T04:26:11.301Z,7.57
2023-03-24T04:28:48.470Z,7.33
2023-03-24T04:31:25.958Z,7.07
2023-03-24T04:34:03.344Z,7.60
2023-03-24T04:36:42.488Z,7.83
2023-03-24T04:39:38.844Z,7.30
2023-03-24T04:42:17.699Z,7.63
2023-03-24T04:44:51.414Z,7.80
2023-03-24T04:47:44.193Z,8.23
2023-03-24T04:50:31.703Z,7.43
2023-03-24T04:53:03.879Z,7.67
2023-03-24T04:55:48.522Z,7.73
2023-03-24T04:58:21.020Z,7.40
2023-03-24T05:00:51.278Z,8.13
2023-03-24T05:03:20.440Z,7.90
2023-03-24T05:05:52.304Z,10.00
2023-03-24T05:08:22.133Z,7.80
2023-03-24T05:10:52.467Z,7.97
2023-03-24T05:13:21.997Z,7.77
2023-03-24T05:15:58.202Z,8.00
2023-03-24T05:18:33.322Z,8.07
2023-03-24T05:21:03.542Z,8.03
2023-03-24T05:23:32.436Z,8.10
2023-03-24T05:26:01.405Z,8.17
2023-03-24T05:28:33.262Z,7.27
2023-03-24T05:31:02.631Z,6.83
2023-03-24T05:33:49.756Z,6.87
2023-03-24T05:36:22.860Z,7.40
2023-03-24T05:38:57.050Z,7.23
2023-03-24T05:41:34.072Z,7.27
2023-03-24T05:44:05.303Z,7.23
2023-03-24T05:46:34.183Z,7.57
2023-03-24T05:49:05.830Z,6.90
2023-03-24T05:51:39.450Z,7.87
2023-03-24T05:54:09.514Z,6.87
2023-03-24T05:56:42.132Z,7.23
2023-03-24T05:59:29.707Z,6.40
2023-03-24T06:02:17.560Z,7.53
2023-03-24T06:05:01.602Z,7.13
2023-03-24T06:07:32.288Z,7.70
2023-03-24T06:10:03.419Z,7.57
2023-03-24T06:12:41.399Z,7.33
2023-03-24T06:15:12.140Z,7.67
2023-03-24T06:17:43.195Z,6.40
2023-03-24T06:20:22.717Z,6.80
2023-03-24T06:23:04.078Z,7.50
2023-03-24T06:26:01.251Z,8.13
2023-03-24T06:28:34.492Z,8.30
2023-03-24T06:31:14.736Z,7.50
2023-03-24T06:33:43.959Z,7.70
2023-03-24T06:36:14.425Z,7.60
2023-03-24T06:38:46.705Z,7.07
2023-03-24T06:41:20.186Z,7.43
2023-03-24T06:43:53.205Z,7.77
2023-03-24T06:46:22.520Z,6.90
2023-03-24T06:48:52.088Z,7.30
2023-03-24T06:51:22.016Z,8.37
2023-03-24T06:53:52.429Z,7.20
2023-03-24T06:56:23.940Z,7.33
2023-03-24T06:58:58.509Z,7.47
2023-03-24T07:01:36.218Z,7.23
2023-03-24T07:04:25.845Z,7.27
2023-03-24T07:07:19.176Z,6.30
2023-03-24T07:09:51.365Z,5.83
2023-03-24T07:12:20.747Z,6.27
2023-03-24T07:14:52.047Z,5.77
2023-03-24T07:17:22.680Z,6.23
2023-03-24T07:20:11.900Z,6.33
2023-03-24T07:22:51.498Z,5.63
2023-03-24T07:25:41.255Z,6.07
2023-03-24T07:28:28.144Z,5.97
2023-03-24T07:30:57.471Z,6.43
2023-03-24T07:33:27.560Z,6.37
2023-03-24T07:35:57.262Z,6.20
2023-03-24T07:38:27.874Z,6.30
2023-03-24T07:41:03.250Z,6.00
2023-03-24T07:43:35.192Z,6.80
2023-03-24T07:46:11.016Z,6.13
2023-03-24T07:48:41.157Z,6.53
2023-03-24T07:51:10.673Z,6.67
2023-03-24T07:53:50.052Z,6.20
2023-03-24T07:56:43.014Z,7.07
2023-03-24T07:59:14.462Z,6.43
2023-03-24T08:01:56.717Z,6.83
2023-03-24T08:04:39.006Z,5.90
2023-03-24T08:07:21.138Z,6.70
2023-03-24T08:09:50.144Z,6.60
2023-03-24T08:12:20.981Z,6.37
2023-03-24T08:14:50.120Z,6.30
2023-03-24T08:17:19.541Z,6.43
2023-03-24T08:19:59.011Z,7.00
2023-03-24T08:22:29.498Z,7.00
2023-03-24T08:24:58.517Z,6.97
2023-03-24T08:27:28.925Z,6.47
2023-03-24T08:29:58.110Z,6.00
2023-03-24T08:32:27.318Z,6.10
2023-03-24T08:34:58.094Z,6.07
2023-03-24T08:37:27.208Z,5.60
2023-03-24T08:39:58.757Z,5.57
2023-03-24T08:42:29.260Z,5.40
2023-03-24T08:44:58.319Z,5.07
2023-03-24T08:47:27.336Z,5.50
2023-03-24T08:49:58.772Z,5.13
2023-03-24T08:52:27.858Z,5.53
2023-03-24T08:54:57.325Z,4.70
2023-03-24T08:57:26.562Z,4.80
2023-03-24T08:59:57.202Z,5.33
2023-03-24T09:02:26.188Z,5.20
2023-03-24T09:04:56.067Z,5.37
2023-03-24T09:07:25.304Z,5.63
2023-03-24T09:09:54.505Z,5.47
2023-03-24T09:12:24.442Z,5.00
2023-03-24T09:14:53.691Z,4.77
2023-03-24T09:17:24.155Z,5.30
2023-03-24T09:19:55.201Z,5.20
2023-03-24T09:22:24.263Z,5.40
2023-03-24T09:24:53.452Z,4.87
2023-03-24T09:27:23.296Z,5.23
2023-03-24T09:29:53.815Z,4.70
2023-03-24T09:32:24.284Z,4.73
2023-03-24T09:34:53.369Z,5.10
2023-03-24T09:37:22.391Z,4.87
2023-03-24T09:39:51.651Z,5.30
2023-03-24T09:42:24.220Z,4.70
2023-03-24T09:44:56.433Z,5.10
2023-03-24T09:47:30.444Z,5.10
2023-03-24T09:50:03.788Z,5.27
2023-03-24T09:52:37.164Z,5.40
2023-03-24T09:55:10.727Z,4.90
2023-03-24T09:57:42.483Z,4.63
2023-03-24T10:00:18.890Z,5.00
2023-03-24T10:02:51.977Z,5.30
2023-03-24T10:05:28.366Z,5.00
2023-03-24T10:08:00.747Z,5.10
2023-03-24T10:10:37.077Z,4.73
2023-03-24T10:13:08.916Z,4.97
2023-03-24T10:15:43.724Z,4.50
2023-03-24T10:18:29.889Z,4.67
2023-03-24T10:21:07.569Z,4.80
2023-03-24T10:23:41.804Z,4.37
2023-03-24T10:26:31.311Z,4.87
2023-03-24T10:29:22.140Z,4.47
2023-03-24T10:31:54.501Z,5.20
2023-03-24T10:34:29.722Z,5.13
2023-03-24T10:37:00.697Z,4.83
2023-03-24T10:39:41.888Z,5.13
2023-03-24T10:42:18.279Z,4.83
2023-03-24T10:44:51.333Z,5.40
2023-03-24T10:47:25.342Z,4.77
2023-03-24T10:49:59.436Z,5.00
2023-03-24T10:52:29.416Z,5.40
2023-03-24T10:55:03.875Z,4.70
2023-03-24T10:57:33.730Z,4.70
2023-03-24T11:00:10.901Z,4.80
2023-03-24T11:02:43.524Z,4.97
2023-03-24T11:05:22.495Z,4.43
2023-03-24T11:07:53.758Z,4.80
2023-03-24T11:10:27.337Z,4.30
2023-03-24T11:13:05.010Z,4.73
2023-03-24T11:15:37.421Z,4.60
2023-03-24T11:18:16.392Z,4.70
2023-03-24T11:20:51.182Z,4.30
2023-03-24T11:23:26.232Z,4.50
2023-03-24T11:26:07.925Z,4.53
2023-03-24T11:28:41.070Z,4.20
2023-03-24T11:31:19.102Z,4.30
2023-03-24T11:33:56.546Z,4.87
2023-03-24T11:36:45.473Z,4.80
2023-03-24T11:39:19.469Z,4.30
2023-03-24T11:42:03.418Z,4.10
2023-03-24T11:44:43.475Z,4.10
2023-03-24T11:47:17.824Z,3.97
2023-03-24T11:49:52.113Z,4.43
2023-03-24T11:52:28.781Z,4.47
2023-03-24T11:54:57.957Z,3.97
2023-03-24T11:57:52.373Z,3.90
2023-03-24T12:00:28.433Z,3.70
2023-03-24T12:03:22.480Z,4.30
2023-03-24T12:05:58.194Z,4.30
2023-03-24T12:08:40.084Z,3.90
2023-03-24T12:11:17.458Z,3.47
2023-03-24T12:13:51.437Z,3.50
2023-03-24T12:16:41.278Z,3.83
2023-03-24T12:19:41.473Z,3.10
2023-03-24T12:22:21.073Z,2.83
2023-03-24T12:25:19.255Z,3.07
2023-03-24T12:27:57.201Z,2.80
2023-03-24T12:30:32.190Z,2.80
2023-03-24T12:33:23.580Z,3.20
2023-03-24T12:36:04.706Z,3.37
2023-03-24T12:38:46.795Z,3.33
2023-03-24T12:41:30.996Z,3.47
2023-03-24T12:44:26.658Z,3.30
2023-03-24T12:47:04.663Z,3.40
2023-03-24T12:49:58.288Z,3.30
2023-03-24T12:52:51.150Z,3.23
2023-03-24T12:55:34.252Z,3.23
2023-03-24T12:58:12.013Z,3.67
2023-03-24T13:00:45.825Z,3.40
2023-03-24T13:03:20.096Z,3.77
2023-03-24T13:05:51.935Z,3.60
2023-03-24T13:08:29.599Z,4.07
2023-03-24T13:11:05.366Z,3.37
2023-03-24T13:13:41.025Z,3.63
2023-03-24T13:16:15.444Z,4.20
2023-03-24T13:18:47.154Z,3.77
2023-03-24T13:21:18.755Z,3.90
2023-03-24T13:23:54.872Z,4.20
2023-03-24T13:26:35.475Z,3.80
2023-03-24T13:29:41.840Z,3.80
2023-03-24T13:32:30.114Z,3.83
2023-03-24T13:35:03.860Z,4.07
2023-03-24T13:37:37.729Z,3.73
2023-03-24T13:40:12.065Z,3.60
2023-03-24T13:42:46.623Z,3.80
2023-03-24T13:45:27.873Z,5.73
2023-03-24T13:48:07.072Z,3.80
2023-03-24T13:50:39.280Z,3.90
2023-03-24T13:53:15.012Z,3.87
2023-03-24T13:55:50.419Z,3.70
2023-03-24T13:58:23.258Z,3.60
2023-03-24T14:01:18.100Z,3.50
2023-03-24T14:04:08.936Z,3.70
2023-03-24T14:06:48.591Z,3.80
2023-03-24T14:09:21.154Z,3.77
2023-03-24T14:12:18.801Z,4.00
2023-03-24T14:15:18.261Z,3.90
2023-03-24T14:17:50.814Z,4.00
2023-03-24T14:20:33.322Z,4.30
2023-03-24T14:23:04.623Z,4.23
2023-03-24T14:25:36.778Z,4.40
2023-03-24T14:28:35.614Z,4.17
2023-03-24T14:31:13.252Z,4.27
2023-03-24T14:34:01.914Z,4.23
2023-03-24T14:36:35.102Z,4.30
2023-03-24T14:39:13.124Z,4.00
2023-03-24T14:41:44.263Z,3.57
2023-03-24T14:44:13.442Z,3.60
2023-03-24T14:46:44.758Z,4.50
2023-03-24T14:49:24.576Z,4.27
2023-03-24T14:52:01.917Z,4.37
2023-03-24T14:54:38.612Z,4.57
2023-03-24T14:57:09.827Z,5.03
2023-03-24T14:59:47.710Z,4.93
2023-03-24T15:02:34.200Z,4.60
2023-03-24T15:05:26.140Z,4.30
2023-03-24T15:08:22.364Z,4.47
2023-03-24T15:10:54.637Z,5.40
2023-03-24T15:13:32.871Z,4.70
2023-03-24T15:16:04.259Z,4.93
2023-03-24T15:18:34.004Z,4.67
2023-03-24T15:21:15.619Z,4.63
2023-03-24T15:23:48.709Z,4.40
2023-03-24T15:26:19.813Z,5.00
2023-03-24T15:28:54.374Z,4.73
2023-03-24T15:31:25.188Z,5.03
2023-03-24T15:33:54.204Z,5.00
2023-03-24T15:36:25.508Z,4.33
2023-03-24T15:38:54.493Z,4.87
2023-03-24T15:41:24.266Z,4.53
2023-03-24T15:43:54.777Z,4.77
2023-03-24T15:46:27.708Z,4.57
2023-03-24T15:48:59.158Z,4.50
2023-03-24T15:51:50.584Z,4.80
2023-03-24T15:54:23.394Z,4.70
2023-03-24T15:57:12.459Z,4.73
2023-03-24T15:59:46.907Z,4.60
2023-03-24T16:02:26.093Z,5.03
2023-03-24T16:05:10.544Z,4.83
2023-03-24T16:07:43.010Z,4.90
2023-03-24T16:10:32.712Z,4.40
2023-03-24T16:13:14.512Z,4.53
2023-03-24T16:15:45.686Z,4.53
2023-03-24T16:18:21.371Z,4.73
2023-03-24T16:20:51.842Z,5.20
2023-03-24T16:23:23.594Z,4.97
2023-03-24T16:25:53.541Z,5.00
2023-03-24T16:28:25.172Z,4.90
2023-03-24T16:30:59.374Z,5.10
2023-03-24T16:33:30.232Z,5.17
2023-03-24T16:35:59.642Z,4.63
2023-03-24T16:38:30.336Z,5.03
2023-03-24T16:40:59.346Z,5.23
2023-03-24T16:43:29.704Z,5.27
2023-03-24T16:45:58.861Z,4.90
2023-03-24T16:48:28.009Z,5.03
2023-03-24T16:50:58.165Z,4.60
2023-03-24T16:53:27.153Z,4.33
2023-03-24T16:55:57.513Z,5.27
2023-03-24T16:58:27.466Z,4.90
2023-03-24T17:00:58.775Z,5.03
2023-03-24T17:03:29.646Z,5.43
2023-03-24T17:05:59.401Z,5.27
2023-03-24T17:08:28.427Z,5.17
2023-03-24T17:10:58.867Z,5.30
2023-03-24T17:13:27.774Z,4.97
2023-03-24T17:15:57.497Z,5.60
2023-03-24T17:18:26.543Z,5.60
2023-03-24T17:20:55.636Z,5.80
2023-03-24T17:23:24.797Z,6.17
2023-03-24T17:25:54.327Z,4.80
2023-03-24T17:28:24.754Z,4.93
2023-03-24T17:30:53.928Z,5.87
2023-03-24T17:33:23.161Z,5.60
2023-03-24T17:35:52.421Z,6.20
2023-03-24T17:38:21.569Z,5.57
2023-03-24T17:40:59.248Z,5.37
2023-03-24T17:43:29.886Z,6.03
2023-03-24T17:45:59.296Z,5.83
2023-03-24T17:48:29.153Z,5.60
2023-03-24T17:50:58.563Z,5.90
2023-03-24T17:53:27.996Z,5.20
2023-03-24T17:55:59.233Z,6.60
2023-03-24T17:58:30.032Z,6.40
2023-03-24T18:01:08.384Z,6.30
2023-03-24T18:03:38.307Z,5.87
2023-03-24T18:06:08.945Z,6.13
2023-03-24T18:08:38.914Z,5.83
2023-03-24T18:11:09.842Z,5.07
2023-03-24T18:13:40.274Z,5.70
2023-03-24T18:16:20.692Z,5.57
2023-03-24T18:18:51.950Z,6.27
2023-03-24T18:21:21.054Z,5.67
2023-03-24T18:23:50.173Z,5.80
2023-03-24T18:26:19.800Z,5.80
2023-03-24T18:28:50.199Z,6.30
2023-03-24T18:31:21.405Z,6.10
2023-03-24T18:33:51.295Z,6.60
2023-03-24T18:36:26.121Z,7.10
2023-03-24T18:38:59.272Z,7.40
2023-03-24T18:41:30.665Z,7.43
2023-03-24T18:44:01.275Z,7.67
2023-03-24T18:46:30.873Z,7.37
2023-03-24T18:48:59.940Z,6.70
2023-03-24T18:51:29.012Z,6.77
2023-03-24T18:53:57.864Z,7.47
2023-03-24T18:56:26.754Z,7.63
2023-03-24T18:58:56.132Z,7.57
2023-03-24T19:01:26.583Z,6.73
2023-03-24T19:03:55.524Z,7.03
2023-03-24T19:06:31.046Z,8.50
2023-03-24T19:09:00.509Z,7.70
2023-03-24T19:11:29.850Z,7.10
2023-03-24T19:13:59.856Z,7.03
2023-03-24T19:16:30.318Z,6.97
2023-03-24T19:19:00.074Z,6.73
2023-03-24T19:21:29.247Z,7.00
2023-03-24T19:23:58.387Z,7.17
2023-03-24T19:26:27.322Z,6.90
2023-03-24T19:28:57.385Z,6.83
2023-03-24T19:31:26.263Z,6.83
2023-03-24T19:33:57.105Z,7.40
2023-03-24T19:36:26.487Z,7.03
2023-03-24T19:38:55.757Z,7.07
2023-03-24T19:41:26.275Z,7.07
2023-03-24T19:43:55.294Z,6.77
2023-03-24T19:46:24.381Z,8.03
2023-03-24T19:48:53.140Z,7.37
2023-03-24T19:51:24.141Z,7.33
2023-03-24T19:53:53.053Z,7.17
2023-03-24T19:56:22.224Z,7.67
2023-03-24T19:58:51.095Z,7.63
2023-03-24T20:01:21.880Z,7.30
2023-03-24T20:03:51.459Z,6.47
2023-03-24T20:06:20.646Z,7.17
2023-03-24T20:08:51.262Z,6.97
2023-03-24T20:11:20.656Z,6.90
2023-03-24T20:13:49.753Z,7.17
2023-03-24T20:16:18.847Z,8.07
2023-03-24T20:18:47.893Z,6.80
2023-03-24T20:21:22.320Z,7.00
2023-03-24T20:23:53.371Z,7.00
2023-03-24T20:26:22.329Z,7.13
2023-03-24T20:28:51.259Z,6.87
2023-03-24T20:31:20.457Z,7.03
2023-03-24T20:33:49.291Z,7.37
2023-03-24T20:36:18.203Z,7.40
2023-03-24T20:38:47.156Z,6.53
2023-03-24T20:41:19.413Z,7.00
2023-03-24T20:43:48.377Z,6.63
2023-03-24T20:46:18.995Z,7.33
2023-03-24T20:48:47.947Z,8.40
2023-03-24T20:51:17.209Z,8.43
2023-03-24T20:53:49.728Z,7.70
2023-03-24T20:56:20.513Z,8.70
2023-03-24T20:58:50.136Z,7.77
2023-03-24T21:01:21.966Z,7.90
2023-03-24T21:03:52.794Z,7.47
2023-03-24T21:06:21.911Z,7.87
2023-03-24T21:08:52.506Z,7.50
2023-03-24T21:11:22.940Z,7.37
2023-03-24T21:13:52.005Z,6.90
2023-03-24T21:16:21.045Z,7.07
2023-03-24T21:18:50.244Z,6.13
2023-03-24T21:21:19.397Z,7.00
2023-03-24T21:23:48.318Z,6.90
2023-03-24T21:26:18.300Z,7.60
2023-03-24T21:28:48.911Z,7.57
2023-03-24T21:31:21.394Z,7.33
2023-03-24T21:33:51.049Z,7.40
2023-03-24T21:36:20.757Z,7.37
2023-03-24T21:38:53.838Z,10.40
2023-03-24T21:41:23.224Z,8.97
2023-03-24T21:43:53.951Z,6.47
2023-03-24T21:46:25.787Z,6.67
2023-03-24T21:48:59.329Z,6.80
2023-03-24T21:51:34.040Z,6.37
2023-03-24T21:54:07.388Z,6.83
2023-03-24T21:56:37.833Z,6.97
2023-03-24T21:59:08.525Z,7.17
2023-03-24T22:01:37.664Z,7.43
2023-03-24T22:04:08.883Z,7.10
2023-03-24T22:06:38.483Z,6.87
2023-03-24T22:09:10.177Z,6.37
2023-03-24T22:11:42.603Z,6.80
2023-03-24T22:14:13.251Z,6.77
2023-03-24T22:16:42.557Z,6.40
2023-03-24T22:19:11.407Z,6.47
2023-03-24T22:21:40.322Z,6.40
2023-03-24T22:24:09.645Z,6.43
2023-03-24T22:26:38.509Z,7.00
2023-03-24T22:29:07.344Z,6.70
2023-03-24T22:31:42.020Z,6.67
2023-03-24T22:34:10.953Z,7.07
2023-03-24T22:36:39.992Z,6.27
2023-03-24T22:39:08.942Z,6.37
2023-03-24T22:41:38.029Z,6.33
2023-03-24T22:44:07.246Z,7.20
2023-03-24T22:46:38.154Z,6.97
2023-03-24T22:49:07.196Z,7.20
2023-03-24T22:51:36.042Z,6.50
2023-03-24T22:54:05.331Z,6.97
2023-03-24T22:56:34.636Z,7.07
2023-03-24T22:59:03.942Z,6.63
2023-03-24T23:01:33.115Z,6.03
2023-03-24T23:04:03.797Z,6.77
2023-03-24T23:06:32.694Z,7.00
2023-03-24T23:09:01.629Z,7.70
2023-03-24T23:11:30.874Z,6.80
2023-03-24T23:14:04.527Z,6.40
2023-03-24T23:16:37.609Z,6.70
2023-03-24T23:19:09.417Z,6.63
2023-03-24T23:21:38.225Z,6.53
2023-03-24T23:24:07.772Z,6.30
2023-03-24T23:26:36.633Z,6.13
2023-03-24T23:29:05.741Z,5.37
2023-03-24T23:31:35.877Z,7.00
2023-03-24T23:34:07.484Z,5.87
2023-03-24T23:36:39.764Z,5.83
2023-03-24T23:39:08.914Z,6.13
2023-03-24T23:41:38.065Z,5.63
2023-03-24T23:44:07.181Z,6.10
2023-03-24T23:46:36.217Z,6.67
2023-03-24T23:49:09.242Z,6.20
2023-03-24T23:51:39.520Z,6.30
2023-03-24T23:54:08.674Z,5.63
2023-03-24T23:56:38.483Z,6.23
2023-03-24T23:59:09.846Z,6.10
